Time;durP1;ratioP1;P1;durP2;ratioP2;P2;SDS_P1;SDS_P2;PMS_P1;PMS_P2;Temp;Humidity;BMP_temperature;BMP_pressure;BME280_temperature;BME280_humidity;BME280_pressure;Samples;Min_cycle;Max_cycle;Signal;HPM_P1;HPM_P2
2023/08/30 00:01:08;;;;;;;5.95;2.95;;;;;;;16.68;80.33;99304.91;4924417;28;20430;-84
2023/08/30 00:03:35;;;;;;;4.63;3.13;;;;;;;16.68;80.37;99302.22;4939234;28;20404;-84
2023/08/30 00:06:04;;;;;;;3.65;2.80;;;;;;;16.69;80.40;99314.63;4903754;29;20086;-85
2023/08/30 00:08:31;;;;;;;2.90;2.58;;;;;;;16.68;80.66;99306.75;4952440;28;21827;-84
2023/08/30 00:10:59;;;;;;;2.78;2.55;;;;;;;16.70;80.60;99304.72;4948862;28;20111;-84
2023/08/30 00:13:26;;;;;;;3.20;2.80;;;;;;;16.71;80.71;99307.25;4920644;28;20066;-84
2023/08/30 00:15:53;;;;;;;3.33;2.88;;;;;;;16.70;80.85;99300.19;4926032;28;20051;-85
2023/08/30 00:18:20;;;;;;;6.75;3.13;;;;;;;16.70;81.01;99296.69;4940315;28;20484;-84
2023/08/30 00:20:47;;;;;;;8.60;3.60;;;;;;;16.69;80.97;99303.91;4908730;28;20055;-84
2023/08/30 00:23:14;;;;;;;7.45;3.25;;;;;;;16.69;80.89;99309.28;4922950;28;20062;-84
2023/08/30 00:25:41;;;;;;;5.25;2.70;;;;;;;16.67;80.76;99299.75;4924556;29;20050;-85
2023/08/30 00:28:08;;;;;;;7.55;3.28;;;;;;;16.66;81.16;99296.25;4893579;28;20043;-84
2023/08/30 00:30:35;;;;;;;7.05;2.90;;;;;;;16.65;80.85;99289.22;4932454;28;20146;-84
2023/08/30 00:33:03;;;;;;;6.90;3.20;;;;;;;16.65;80.84;99294.56;4927393;29;20058;-84
2023/08/30 00:35:30;;;;;;;5.28;2.83;;;;;;;16.66;81.22;99295.41;4897881;28;20043;-84
2023/08/30 00:37:57;;;;;;;8.90;3.65;;;;;;;16.67;81.27;99294.41;4909881;28;20055;-85
2023/08/30 00:40:25;;;;;;;3.72;3.42;;;;;;;16.67;81.03;99291.72;4927579;28;20483;-84
2023/08/30 00:42:52;;;;;;;4.10;3.00;;;;;;;16.67;81.48;99292.53;4920424;28;20049;-83
2023/08/30 00:45:19;;;;;;;6.78;4.18;;;;;;;16.69;81.37;99287.00;4925962;28;20495;-84
2023/08/30 00:47:46;;;;;;;5.50;4.55;;;;;;;16.67;81.69;99283.66;4899328;28;20066;-84
2023/08/30 00:50:13;;;;;;;5.25;4.32;;;;;;;16.65;81.38;99281.16;4918639;29;20703;-84
2023/08/30 00:52:40;;;;;;;6.00;4.05;;;;;;;16.65;81.42;99288.38;4923070;28;20497;-84
2023/08/30 00:55:08;;;;;;;7.47;4.75;;;;;;;16.64;81.57;99284.06;4925132;28;20517;-84
2023/08/30 00:57:35;;;;;;;5.45;4.47;;;;;;;16.62;81.53;99284.22;4939285;28;20071;-84
2023/08/30 01:00:04;;;;;;;6.40;3.92;;;;;;;16.63;81.35;99279.69;4941059;28;20047;-84
2023/08/30 01:02:32;;;;;;;5.50;3.78;;;;;;;16.61;81.21;99277.22;4921176;28;20372;-85
2023/08/30 01:05:02;;;;;;;4.72;2.92;;;;;;;16.59;80.71;99276.56;4930091;28;20527;-83
2023/08/30 01:07:29;;;;;;;5.68;2.70;;;;;;;16.59;80.58;99275.72;4920550;28;20411;-84
2023/08/30 01:09:56;;;;;;;11.82;3.03;;;;;;;16.57;80.27;99261.69;4924992;29;20487;-84
2023/08/30 01:12:48;;;;;;;5.75;3.03;;;;;;;16.47;80.02;99276.22;4920308;28;20088;-84
2023/08/30 01:15:18;;;;;;;4.20;3.33;;;;;;;16.54;80.50;99275.44;4897634;28;20158;-84
2023/08/30 01:17:48;;;;;;;13.85;4.20;;;;;;;16.54;80.67;99270.09;4936174;28;20048;-84
2023/08/30 01:20:18;;;;;;;5.45;2.97;;;;;;;16.53;80.78;99269.25;4952548;28;20052;-84
2023/08/30 01:22:59;;;;;;;4.70;3.75;;;;;;;16.49;80.92;99268.81;4946869;28;20069;-83
2023/08/30 01:25:48;;;;;;;5.40;4.50;;;;;;;16.50;81.19;99272.31;4905301;28;20046;-85
2023/08/30 01:28:16;;;;;;;7.05;4.65;;;;;;;16.49;81.29;99271.50;4930087;28;20117;-84
2023/08/30 01:30:44;;;;;;;8.80;4.90;;;;;;;16.50;81.66;99272.31;4937400;28;20055;-83
2023/08/30 01:33:14;;;;;;;11.90;5.28;;;;;;;16.48;81.71;99269.00;4925244;28;20054;-84
2023/08/30 01:35:41;;;;;;;7.93;4.95;;;;;;;16.49;82.04;99273.34;4923697;28;20049;-84
2023/08/30 01:38:08;;;;;;;10.18;5.30;;;;;;;16.50;82.04;99270.47;4911599;28;20051;-84
2023/08/30 01:40:38;;;;;;;12.77;5.13;;;;;;;16.51;81.27;99265.94;4950553;28;20048;-84
2023/08/30 01:43:06;;;;;;;9.35;5.28;;;;;;;16.49;81.26;99265.31;4952932;28;20095;-84
2023/08/30 01:45:38;;;;;;;9.13;5.07;;;;;;;16.51;81.38;99268.63;4926696;28;20043;-84
2023/08/30 01:48:10;;;;;;;6.13;5.45;;;;;;;16.48;81.33;99258.28;4927476;28;20047;-84
2023/08/30 01:50:42;;;;;;;7.25;5.18;;;;;;;16.47;81.28;99262.00;4910378;28;20951;-84
2023/08/30 01:53:10;;;;;;;11.88;5.32;;;;;;;16.47;81.39;99270.03;4936669;28;20047;-83
2023/08/30 01:55:37;;;;;;;8.35;4.93;;;;;;;16.48;81.11;99266.31;4948139;28;20389;-83
2023/08/30 01:58:06;;;;;;;6.30;5.07;;;;;;;16.46;81.92;99263.84;4901883;28;20047;-84
2023/08/30 02:00:37;;;;;;;6.00;5.20;;;;;;;16.45;82.00;99262.16;4907173;28;20050;-83
2023/08/30 02:03:13;;;;;;;6.15;5.20;;;;;;;16.44;82.13;99265.06;4906540;28;20044;-83
2023/08/30 02:05:49;;;;;;;5.90;5.13;;;;;;;16.38;82.52;99260.41;4916600;28;20126;-84
2023/08/30 02:08:17;;;;;;;8.02;5.05;;;;;;;16.43;82.37;99266.06;4911955;28;20111;-83
2023/08/30 02:10:55;;;;;;;7.38;5.28;;;;;;;16.39;82.45;99265.59;4941945;28;20102;-84
2023/08/30 02:13:26;;;;;;;6.47;5.65;;;;;;;16.39;82.38;99262.09;4951925;28;20048;-83
2023/08/30 02:15:59;;;;;;;11.15;5.47;;;;;;;16.39;82.60;99262.09;4917238;28;20059;-83
2023/08/30 02:18:26;;;;;;;;;;;;;;;16.25;83.25;99266.44;4924964;28;20134;-84
2023/08/30 02:20:57;;;;;;;7.93;5.20;;;;;;;16.36;82.45;99267.81;4926409;28;19958;-84
2023/08/30 02:23:25;;;;;;;6.00;5.40;;;;;;;16.37;82.53;99258.78;4907299;28;20075;-83
2023/08/30 02:25:53;;;;;;;6.25;5.22;;;;;;;16.37;82.43;99259.59;4907041;28;20380;-84
2023/08/30 02:28:20;;;;;;;7.95;5.40;;;;;;;16.38;82.33;99257.75;4926299;28;20511;-84
2023/08/30 02:30:47;;;;;;;5.65;5.05;;;;;;;16.37;82.00;99251.56;4913829;28;20070;-85
2023/08/30 02:33:16;;;;;;;7.63;4.80;;;;;;;16.37;82.20;99256.09;4921998;28;20510;-84
2023/08/30 02:35:43;;;;;;;5.50;4.72;;;;;;;16.37;82.02;99262.28;4925698;28;20127;-84
2023/08/30 02:38:10;;;;;;;8.27;5.43;;;;;;;16.35;81.91;99261.63;4913899;28;20125;-83
2023/08/30 02:40:38;;;;;;;6.70;4.25;;;;;;;16.36;81.75;99262.44;4909151;28;20135;-84
2023/08/30 02:43:04;;;;;;;6.53;5.40;;;;;;;16.36;81.41;99265.13;4925203;28;20126;-84
2023/08/30 02:45:31;;;;;;;12.57;5.93;;;;;;;16.35;81.42;99274.19;4909239;28;20487;-84
2023/08/30 02:47:58;;;;;;;8.85;5.30;;;;;;;16.32;82.02;99272.72;4913037;28;20124;-84
2023/08/30 02:50:25;;;;;;;6.00;4.63;;;;;;;16.34;81.86;99275.22;4956898;28;20055;-84
2023/08/30 02:52:52;;;;;;;7.80;5.35;;;;;;;16.35;81.92;99275.03;4941360;28;20424;-84
2023/08/30 02:55:20;;;;;;;6.22;4.80;;;;;;;16.35;81.45;99271.53;4950239;28;20119;-83
2023/08/30 02:57:47;;;;;;;5.20;4.20;;;;;;;16.36;81.28;99270.50;4940115;28;20039;-84
2023/08/30 03:00:15;;;;;;;5.38;4.65;;;;;;;16.35;81.21;99268.84;4944076;28;20047;-84
2023/08/30 03:02:46;;;;;;;5.40;4.90;;;;;;;16.33;81.26;99266.34;4929574;28;20052;-84
2023/08/30 03:05:13;;;;;;;5.97;5.15;;;;;;;16.33;81.21;99266.34;4916208;28;20059;-84
2023/08/30 03:07:41;;;;;;;8.25;4.95;;;;;;;16.34;81.08;99261.84;4936400;28;20047;-83
2023/08/30 03:10:08;;;;;;;7.28;5.45;;;;;;;16.34;81.12;99265.34;4939160;28;20130;-84
2023/08/30 03:12:36;;;;;;;7.13;5.85;;;;;;;16.34;81.29;99267.19;4909020;28;20062;-85
2023/08/30 03:15:04;;;;;;;9.13;6.13;;;;;;;16.33;81.38;99257.47;4905528;28;20047;-83
2023/08/30 03:17:31;;;;;;;9.07;6.43;;;;;;;16.32;81.64;99266.53;4899191;28;20047;-84
2023/08/30 03:20:00;;;;;;;9.38;7.43;;;;;;;16.31;81.80;99270.22;4907031;28;20758;-84
2023/08/30 03:22:28;;;;;;;8.60;5.88;;;;;;;16.27;81.75;99262.56;4924701;28;20058;-85
2023/08/30 03:24:55;;;;;;;7.85;5.05;;;;;;;16.31;81.59;99263.03;4915628;28;20047;-84
2023/08/30 03:27:22;;;;;;;9.38;6.20;;;;;;;16.33;81.55;99270.88;4893260;28;20122;-83
2023/08/30 03:29:49;;;;;;;6.53;5.82;;;;;;;16.32;81.27;99271.91;4954951;28;20461;-84
2023/08/30 03:32:17;;;;;;;6.57;5.70;;;;;;;16.31;81.48;99268.41;4944083;28;20070;-84
2023/08/30 03:34:47;;;;;;;7.50;6.00;;;;;;;16.31;80.93;99268.41;4928479;28;20051;-83
2023/08/30 03:37:15;;;;;;;7.22;5.03;;;;;;;16.29;81.14;99262.38;4929355;28;20047;-84
2023/08/30 03:39:42;;;;;;;5.95;5.35;;;;;;;16.27;81.18;99267.09;4924366;28;20853;-84
2023/08/30 03:42:09;;;;;;;7.68;5.28;;;;;;;16.26;81.17;99270.81;4900463;28;20095;-84
2023/08/30 03:44:37;;;;;;;6.47;5.57;;;;;;;16.26;81.44;99277.00;4904295;28;20448;-84
2023/08/30 03:47:06;;;;;;;6.95;6.15;;;;;;;16.24;81.75;99267.47;4912654;28;20047;-83
2023/08/30 03:49:33;;;;;;;7.90;6.13;;;;;;;16.25;81.71;99269.94;4927639;28;20130;-84
2023/08/30 03:52:00;;;;;;;10.00;6.30;;;;;;;16.24;81.77;99264.78;4944031;28;20047;-83
2023/08/30 03:54:27;;;;;;;8.70;6.22;;;;;;;16.23;81.84;99263.13;4902974;28;20039;-84
2023/08/30 03:56:54;;;;;;;7.55;6.28;;;;;;;16.25;81.69;99261.09;4902111;28;20831;-84
2023/08/30 03:59:22;;;;;;;6.13;5.50;;;;;;;16.23;81.41;99258.59;4941541;28;20367;-84
2023/08/30 04:01:53;;;;;;;6.32;5.30;;;;;;;16.20;81.26;99248.25;4935917;28;20139;-84
2023/08/30 04:04:20;;;;;;;6.63;5.07;;;;;;;16.19;81.26;99251.94;4912523;28;20043;-84
2023/08/30 04:06:48;;;;;;;6.85;4.72;;;;;;;16.19;81.32;99253.81;4928445;28;20047;-84
2023/08/30 04:09:15;;;;;;;5.20;4.50;;;;;;;16.20;81.51;99264.31;4937197;28;20059;-84
2023/08/30 04:11:43;;;;;;;5.80;4.20;;;;;;;16.19;81.31;99260.00;4896754;28;20443;-84
2023/08/30 04:14:10;;;;;;;7.90;4.75;;;;;;;16.19;81.59;99257.31;4927559;28;20035;-84
2023/08/30 04:16:37;;;;;;;7.45;4.82;;;;;;;16.19;81.79;99256.47;4927256;28;20059;-83
2023/08/30 04:19:06;;;;;;;6.15;4.90;;;;;;;16.18;81.75;99252.97;4916926;28;20051;-83
2023/08/30 04:21:33;;;;;;;5.72;5.13;;;;;;;16.18;81.92;99252.13;4925101;28;20047;-83
2023/08/30 04:24:00;;;;;;;7.22;5.70;;;;;;;16.17;82.30;99255.84;4896706;28;20059;-83
2023/08/30 04:26:27;;;;;;;10.68;5.10;;;;;;;16.17;82.27;99250.47;4925292;28;20055;-83
2023/08/30 04:28:54;;;;;;;8.23;5.80;;;;;;;16.17;82.05;99248.63;4909259;28;20039;-83
2023/08/30 04:31:20;;;;;;;7.03;5.57;;;;;;;16.17;82.43;99248.63;4922377;28;20399;-83
2023/08/30 04:33:47;;;;;;;9.90;5.97;;;;;;;16.16;82.30;99252.34;4921259;28;20111;-83
2023/08/30 04:36:14;;;;;;;9.40;6.93;;;;;;;16.16;82.31;99249.66;4909783;28;20137;-83
2023/08/30 04:38:41;;;;;;;6.25;5.57;;;;;;;16.15;82.67;99247.97;4896311;28;20139;-83
2023/08/30 04:41:26;;;;;;;9.88;6.35;;;;;;;16.15;82.61;99247.97;4925435;28;20043;-83
2023/08/30 04:43:53;;;;;;;9.15;6.07;;;;;;;16.15;82.76;99242.63;4913651;28;20126;-83
2023/08/30 04:46:21;;;;;;;8.25;6.68;;;;;;;16.16;82.64;99244.28;4895453;28;20119;-83
2023/08/30 04:48:47;;;;;;;7.40;6.10;;;;;;;16.16;82.75;99238.13;4879524;29;20103;-83
2023/08/30 04:51:15;;;;;;;7.05;5.50;;;;;;;16.15;82.77;99237.25;4907410;28;20078;-83
2023/08/30 04:53:42;;;;;;;9.30;6.07;;;;;;;16.17;82.98;99243.25;4926020;28;20574;-82
2023/08/30 04:56:13;;;;;;;8.55;7.65;;;;;;;16.16;82.59;99238.13;4926574;28;20802;-83
2023/08/30 04:58:40;;;;;;;10.93;7.00;;;;;;;16.17;82.72;99242.44;4906887;28;20159;-83
2023/08/30 05:01:11;;;;;;;7.28;6.57;;;;;;;16.16;82.77;99243.47;4935008;28;20069;-83
2023/08/30 05:03:39;;;;;;;9.93;7.38;;;;;;;16.18;82.99;99252.97;4911129;28;20118;-83
2023/08/30 05:06:09;;;;;;;6.70;5.78;;;;;;;16.15;83.01;99253.31;4924490;29;20051;-83
2023/08/30 05:08:35;;;;;;;7.97;6.50;;;;;;;16.15;82.85;99253.31;4923680;28;20059;-83
2023/08/30 05:11:03;;;;;;;11.95;6.20;;;;;;;16.14;82.89;99257.03;4934179;28;20062;-83
2023/08/30 05:13:33;;;;;;;12.13;7.00;;;;;;;16.14;83.16;99249.00;4938342;28;20515;-83
2023/08/30 05:16:00;;;;;;;8.10;6.70;;;;;;;16.15;83.27;99250.66;4922260;28;20070;-83
2023/08/30 05:18:27;;;;;;;7.97;7.13;;;;;;;16.16;83.28;99248.84;4921129;28;20208;-83
2023/08/30 05:20:54;;;;;;;10.85;7.63;;;;;;;16.16;83.54;99254.19;4911060;28;20051;-82
2023/08/30 05:23:21;;;;;;;7.88;7.07;;;;;;;16.16;83.58;99251.50;4933407;28;20067;-83
2023/08/30 05:25:48;;;;;;;10.75;7.45;;;;;;;16.19;83.38;99248.44;4929601;28;20040;-83
2023/08/30 05:28:16;;;;;;;8.98;7.45;;;;;;;16.18;83.31;99249.44;4922603;28;20050;-83
2023/08/30 05:30:44;;;;;;;14.02;9.75;;;;;;;16.18;83.36;99250.31;4921643;28;20058;-83
2023/08/30 05:33:45;;;;;;;9.70;7.72;;;;;;;16.17;83.48;99253.97;4911725;29;20054;-83
2023/08/30 05:36:48;;;;;;;14.45;9.35;;;;;;;16.19;83.74;99253.81;4867254;29;20089;-83
2023/08/30 05:39:34;;;;;;;8.95;7.85;;;;;;;16.18;83.79;99252.97;4935108;28;20079;-82
2023/08/30 05:42:00;;;;;;;11.68;8.00;;;;;;;16.21;83.57;99255.28;4895800;28;20115;-83
2023/08/30 05:44:27;;;;;;;9.43;7.50;;;;;;;16.23;83.57;99258.59;4929343;28;20132;-83
2023/08/30 05:46:54;;;;;;;11.73;8.65;;;;;;;16.25;83.81;99258.41;4919764;28;20047;-82
2023/08/30 05:49:21;;;;;;;10.68;8.57;;;;;;;16.25;84.11;99256.56;4910663;28;20481;-83
2023/08/30 05:51:49;;;;;;;13.30;9.38;;;;;;;16.26;84.20;99255.56;4910385;28;20645;-83
2023/08/30 05:54:17;;;;;;;12.20;10.02;;;;;;;16.28;84.02;99260.72;4914433;28;20070;-83
2023/08/30 05:56:43;;;;;;;9.80;8.57;;;;;;;16.25;83.87;99256.56;4938110;28;20039;-83
2023/08/30 05:59:11;;;;;;;12.68;8.70;;;;;;;16.27;83.54;99254.53;4922485;28;20047;-82
2023/08/30 06:01:38;;;;;;;13.70;8.80;;;;;;;16.28;83.78;99253.53;4922825;28;20047;-83
2023/08/30 06:04:05;;;;;;;10.35;8.23;;;;;;;16.28;84.22;99247.31;4908830;28;20044;-83
2023/08/30 06:06:32;;;;;;;11.18;9.13;;;;;;;16.29;83.84;99254.34;4915272;28;20063;-82
2023/08/30 06:08:59;;;;;;;12.20;9.95;;;;;;;16.29;84.00;99251.66;4943713;28;20817;-83
2023/08/30 06:11:26;;;;;;;13.15;8.70;;;;;;;16.31;84.25;99246.97;4927310;28;20130;-83
2023/08/30 06:13:52;;;;;;;10.35;9.07;;;;;;;16.32;84.45;99247.78;4931271;28;20480;-83
2023/08/30 06:16:19;;;;;;;11.27;9.40;;;;;;;16.32;84.54;99250.47;4903764;28;20571;-83
2023/08/30 06:18:46;;;;;;;11.40;8.07;;;;;;;16.33;84.57;99258.28;4932512;28;21009;-83
2023/08/30 06:21:13;;;;;;;9.55;7.80;;;;;;;16.35;84.97;99253.59;4920404;29;20043;-83
2023/08/30 06:23:40;;;;;;;10.15;7.60;;;;;;;16.37;84.84;99256.09;4935386;28;20058;-83
2023/08/30 06:26:07;;;;;;;11.40;7.30;;;;;;;16.38;85.05;99258.56;4910294;28;20051;-82
2023/08/30 06:28:33;;;;;;;9.25;7.57;;;;;;;16.39;84.87;99254.88;4923012;28;20130;-82
2023/08/30 06:31:00;;;;;;;10.98;7.93;;;;;;;16.39;84.84;99252.22;4906618;28;20053;-82
2023/08/30 06:33:27;;;;;;;9.52;8.45;;;;;;;16.40;84.55;99255.72;4917178;28;20043;-83
2023/08/30 06:35:56;;;;;;;12.25;8.40;;;;;;;16.40;84.62;99250.34;4912523;28;20051;-83
2023/08/30 06:38:22;;;;;;;10.95;8.20;;;;;;;16.40;84.76;99247.66;4912852;28;20047;-83
2023/08/30 06:40:49;;;;;;;9.45;8.27;;;;;;;16.42;84.88;99248.31;4942134;28;20526;-83
2023/08/30 06:43:16;;;;;;;10.38;8.30;;;;;;;16.42;84.98;99249.16;4928050;28;20051;-82
2023/08/30 06:45:43;;;;;;;10.32;8.77;;;;;;;16.42;84.70;99249.16;4926396;28;20455;-82
2023/08/30 06:48:10;;;;;;;10.32;9.15;;;;;;;16.44;84.98;99246.28;4910441;28;20404;-85
2023/08/30 06:50:38;;;;;;;10.23;9.15;;;;;;;16.46;85.33;99241.56;4919491;28;20066;-82
2023/08/30 06:53:05;;;;;;;11.02;9.13;;;;;;;16.47;85.29;99236.00;4929800;28;20115;-82
2023/08/30 06:55:33;;;;;;;11.25;9.43;;;;;;;16.49;85.55;99235.84;4936857;28;20043;-82
2023/08/30 06:58:00;;;;;;;13.55;10.52;;;;;;;16.50;85.62;99232.94;4951919;28;20059;-82
2023/08/30 07:00:26;;;;;;;15.27;11.15;;;;;;;16.52;85.63;99240.81;4928428;28;20050;-82
2023/08/30 07:02:53;;;;;;;13.15;10.90;;;;;;;16.53;85.64;99229.06;4914983;29;20505;-82
2023/08/30 07:05:22;;;;;;;13.45;10.77;;;;;;;16.53;86.00;99231.75;4913216;28;20046;-82
2023/08/30 07:07:49;;;;;;;13.23;10.50;;;;;;;16.56;86.09;99228.69;4928847;28;20056;-82
2023/08/30 07:10:16;;;;;;;12.65;9.90;;;;;;;16.58;86.25;99231.19;4925720;28;20455;-82
2023/08/30 07:12:43;;;;;;;14.25;10.95;;;;;;;16.58;86.10;99220.47;4930291;28;20055;-82
2023/08/30 07:15:10;;;;;;;13.57;10.65;;;;;;;16.59;85.74;99219.44;4913222;28;20043;-83
2023/08/30 07:17:37;;;;;;;10.55;9.02;;;;;;;16.59;85.91;99216.75;4925145;28;20130;-82
2023/08/30 07:20:19;;;;;;;12.02;9.07;;;;;;;16.61;85.65;99218.25;4938955;28;20099;-82
2023/08/30 07:22:46;;;;;;;12.75;9.82;;;;;;;16.63;85.85;99213.50;4925474;28;20125;-82
2023/08/30 07:25:13;;;;;;;10.25;8.60;;;;;;;16.66;85.63;99215.81;4917022;28;20127;-82
2023/08/30 07:27:40;;;;;;;15.10;10.05;;;;;;;16.68;85.55;99219.13;4938123;28;20055;-82
2023/08/30 07:30:08;;;;;;;10.90;9.13;;;;;;;16.69;85.78;99217.31;4924249;28;20137;-82
2023/08/30 07:32:37;;;;;;;11.35;9.32;;;;;;;16.71;85.84;99226.81;4934657;28;20504;-82
2023/08/30 07:35:05;;;;;;;9.20;8.13;;;;;;;16.71;85.78;99221.44;4930753;28;20443;-82
2023/08/30 07:37:32;;;;;;;11.82;8.85;;;;;;;16.74;85.83;99225.59;4915419;28;20095;-82
2023/08/30 07:39:58;;;;;;;10.15;7.35;;;;;;;16.76;85.75;99225.38;4927078;28;20051;-82
2023/08/30 07:42:25;;;;;;;10.77;8.68;;;;;;;16.78;85.45;99229.56;4910960;28;20047;-82
2023/08/30 07:44:52;;;;;;;10.80;8.68;;;;;;;16.81;85.73;99233.72;4928036;29;20132;-82
2023/08/30 07:47:19;;;;;;;8.95;7.95;;;;;;;16.81;85.55;99223.81;4924155;28;20044;-82
2023/08/30 07:49:46;;;;;;;8.25;7.18;;;;;;;16.85;85.41;99229.66;4942261;28;20126;-82
2023/08/30 07:52:13;;;;;;;7.95;6.82;;;;;;;16.89;85.62;99228.22;4911709;28;20055;-82
2023/08/30 07:54:40;;;;;;;8.90;7.18;;;;;;;16.93;85.73;99219.63;4928147;28;20066;-82
2023/08/30 07:57:07;;;;;;;15.45;6.78;;;;;;;16.97;85.06;99225.44;4908925;29;20103;-82
2023/08/30 07:59:36;;;;;;;8.57;6.20;;;;;;;17.01;84.69;99229.38;4937625;28;20047;-82
2023/08/30 08:02:06;;;;;;;7.95;6.90;;;;;;;17.03;84.92;99219.31;4926329;28;20075;-82
2023/08/30 08:04:37;;;;;;;9.68;7.07;;;;;;;17.05;85.21;99219.13;4912451;28;20097;-83
2023/08/30 08:07:04;;;;;;;9.65;6.50;;;;;;;17.07;85.35;99217.91;4910677;28;20047;-83
2023/08/30 08:09:32;;;;;;;8.70;6.50;;;;;;;17.10;85.20;99211.31;4928728;28;20047;-82
2023/08/30 08:11:58;;;;;;;5.65;5.13;;;;;;;17.11;84.90;99211.09;4918810;28;20154;-83
2023/08/30 08:14:26;;;;;;;6.38;5.20;;;;;;;17.15;85.30;99211.56;4930120;28;20048;-82
2023/08/30 08:16:53;;;;;;;6.32;5.55;;;;;;;17.17;85.12;99212.19;4925506;28;20063;-83
2023/08/30 08:19:21;;;;;;;6.28;5.03;;;;;;;17.18;84.85;99213.84;4937773;28;20056;-83
2023/08/30 08:21:53;;;;;;;5.47;4.90;;;;;;;17.19;84.74;99220.06;4925714;28;20047;-82
2023/08/30 08:24:21;;;;;;;5.55;4.95;;;;;;;17.21;84.86;99213.47;4943158;28;20063;-83
2023/08/30 08:26:48;;;;;;;6.82;5.40;;;;;;;17.25;84.68;99216.56;4911644;28;20048;-83
2023/08/30 08:29:15;;;;;;;5.45;4.45;;;;;;;17.25;84.60;99221.94;4917811;28;20126;-83
2023/08/30 08:31:41;;;;;;;5.05;4.47;;;;;;;17.27;84.55;99222.59;4910421;28;20043;-83
2023/08/30 08:34:12;;;;;;;4.95;4.45;;;;;;;17.30;84.56;99225.72;4924388;28;20143;-83
2023/08/30 08:36:40;;;;;;;4.90;4.50;;;;;;;17.34;84.52;99210.06;4899122;28;20567;-83
2023/08/30 08:39:07;;;;;;;9.38;5.22;;;;;;;17.38;83.69;99210.47;4913683;28;20046;-83
2023/08/30 08:41:41;;;;;;;5.00;4.05;;;;;;;17.36;83.53;99213.38;4937318;28;20047;-82
2023/08/30 08:44:09;;;;;;;5.15;4.28;;;;;;;17.43;83.96;99216.09;4928148;28;20122;-83
2023/08/30 08:46:38;;;;;;;7.07;5.65;;;;;;;17.44;83.62;99213.22;4904998;28;20054;-83
2023/08/30 08:49:11;;;;;;;7.10;5.65;;;;;;;17.44;82.10;99217.78;4925718;28;20233;-83
2023/08/30 08:51:38;;;;;;;7.93;5.75;;;;;;;17.44;82.34;99220.47;4904795;28;20099;-83
2023/08/30 08:54:05;;;;;;;7.50;5.53;;;;;;;17.46;82.54;99227.28;4924611;28;20047;-83
2023/08/30 08:56:33;;;;;;;9.38;5.35;;;;;;;17.48;82.14;99227.94;4923876;28;20063;-83
2023/08/30 08:59:01;;;;;;;5.68;4.88;;;;;;;17.51;82.18;99218.66;4910429;28;20515;-83
2023/08/30 09:01:28;;;;;;;5.70;4.70;;;;;;;17.56;82.65;99225.09;4911600;28;20510;-83
2023/08/30 09:04:12;;;;;;;5.20;4.70;;;;;;;17.56;82.13;99222.41;4910815;28;20047;-83
2023/08/30 09:06:43;;;;;;;7.90;5.80;;;;;;;17.63;82.17;99227.84;4925110;28;20043;-83
2023/08/30 09:09:10;;;;;;;6.55;5.15;;;;;;;17.65;81.84;99224.94;4926575;28;20134;-83
2023/08/30 09:11:37;;;;;;;5.85;5.35;;;;;;;17.70;81.59;99233.22;4933416;28;20127;-83
2023/08/30 09:14:08;;;;;;;6.82;6.05;;;;;;;17.75;80.92;99228.91;4920505;28;20147;-83
2023/08/30 09:16:35;;;;;;;7.22;5.90;;;;;;;17.74;81.15;99219.22;4951668;28;20154;-83
2023/08/30 09:19:03;;;;;;;7.03;6.25;;;;;;;17.75;81.33;99220.03;4944705;28;20127;-84
2023/08/30 09:21:36;;;;;;;5.70;4.93;;;;;;;17.74;81.07;99227.28;4931777;28;20479;-84
2023/08/30 09:24:05;;;;;;;5.22;4.47;;;;;;;17.75;81.07;99217.34;4894768;28;20118;-83
2023/08/30 09:26:33;;;;;;;8.30;5.65;;;;;;;17.76;80.84;99227.91;4918865;28;20117;-83
2023/08/30 09:29:07;;;;;;;5.20;4.70;;;;;;;17.77;80.49;99232.25;4897096;28;20130;-83
2023/08/30 09:31:38;;;;;;;5.95;5.35;;;;;;;17.83;80.15;99227.97;4904654;28;20052;-83
2023/08/30 09:34:06;;;;;;;7.03;6.30;;;;;;;17.83;79.92;99221.78;4934796;28;20500;-83
2023/08/30 09:36:36;;;;;;;6.53;5.60;;;;;;;17.83;79.66;99224.47;4936035;28;20499;-84
2023/08/30 09:39:07;;;;;;;5.85;5.10;;;;;;;17.85;80.16;99225.09;4917788;28;20126;-84
2023/08/30 09:41:34;;;;;;;5.85;5.25;;;;;;;17.83;80.23;99222.59;4909648;28;20075;-83
2023/08/30 09:44:11;;;;;;;5.95;5.38;;;;;;;17.83;79.90;99219.09;4907555;28;20051;-84
2023/08/30 09:46:54;;;;;;;7.47;6.60;;;;;;;17.84;79.86;99213.53;4938725;28;20039;-83
2023/08/30 09:49:25;;;;;;;7.53;6.15;;;;;;;17.86;79.90;99222.22;4944532;28;20047;-84
2023/08/30 09:51:53;;;;;;;7.97;4.97;;;;;;;17.89;79.95;99218.31;4915768;28;20066;-83
2023/08/30 09:54:24;;;;;;;5.25;4.75;;;;;;;17.88;79.93;99220.16;4911105;28;20483;-83
2023/08/30 09:56:57;;;;;;;5.53;4.93;;;;;;;17.93;80.15;99219.56;4941333;28;20506;-84
2023/08/30 09:59:24;;;;;;;4.75;4.28;;;;;;;17.94;80.28;99216.69;4950235;28;20043;-83
2023/08/30 10:01:52;;;;;;;4.85;4.40;;;;;;;17.95;79.99;99212.97;4923873;28;20058;-84
2023/08/30 10:04:20;;;;;;;4.90;4.40;;;;;;;17.97;80.06;99200.16;4925631;29;20043;-84
2023/08/30 10:06:47;;;;;;;6.95;4.72;;;;;;;18.01;80.05;99211.31;4936273;28;20057;-83
2023/08/30 10:09:15;;;;;;;5.20;4.70;;;;;;;18.04;79.77;99202.03;4949189;28;20103;-85
2023/08/30 10:11:46;;;;;;;6.03;4.65;;;;;;;18.05;79.38;99206.41;4908801;28;20110;-85
2023/08/30 10:14:13;;;;;;;7.40;4.47;;;;;;;18.05;79.70;99193.78;4906480;28;20048;-83
2023/08/30 10:16:49;;;;;;;6.65;4.50;;;;;;;18.08;79.33;99190.69;4894964;28;20091;-83
2023/08/30 10:19:17;;;;;;;4.10;3.80;;;;;;;18.08;79.55;99192.56;4924059;28;20111;-83
2023/08/30 10:21:44;;;;;;;5.38;4.05;;;;;;;18.07;79.66;99181.00;4922053;28;20105;-82
2023/08/30 10:24:12;;;;;;;5.15;3.92;;;;;;;18.09;79.53;99183.47;4908052;29;20047;-83
2023/08/30 10:26:57;;;;;;;4.50;4.10;;;;;;;18.09;79.33;99175.41;4893498;28;20055;-82
2023/08/30 10:29:25;;;;;;;3.90;3.60;;;;;;;18.12;78.90;99183.09;4913437;28;20134;-83
2023/08/30 10:31:52;;;;;;;4.57;4.18;;;;;;;18.12;79.02;99178.53;4923579;29;20467;-83
2023/08/30 10:34:20;;;;;;;5.28;3.92;;;;;;;18.15;78.71;99174.63;4924535;28;20043;-83
2023/08/30 10:37:02;;;;;;;4.13;3.53;;;;;;;18.17;78.28;99172.56;4923827;28;20043;-83
2023/08/30 10:39:39;;;;;;;4.32;3.53;;;;;;;18.21;77.29;99171.13;4934085;28;20170;-83
2023/08/30 10:42:14;;;;;;;3.08;2.88;;;;;;;18.20;77.44;99172.16;4911354;28;20068;-83
2023/08/30 10:44:51;;;;;;;4.18;2.92;;;;;;;18.21;77.72;99161.19;4916024;28;20510;-85
2023/08/30 10:47:25;;;;;;;3.38;3.08;;;;;;;18.30;77.71;99159.16;4930110;28;20390;-84
2023/08/30 10:49:56;;;;;;;4.45;3.25;;;;;;;18.35;77.73;99163.94;4940506;28;20423;-84
2023/08/30 10:52:23;;;;;;;3.30;3.00;;;;;;;18.41;76.88;99157.75;4949403;28;20044;-86
2023/08/30 10:54:50;;;;;;;3.65;2.88;;;;;;;18.46;76.65;99155.28;4924478;28;20430;-86
2023/08/30 10:57:24;;;;;;;5.63;3.00;;;;;;;18.46;74.83;99149.91;4914763;28;20437;-86
2023/08/30 11:00:07;;;;;;;2.97;2.67;;;;;;;18.50;75.02;99155.72;4927020;28;20115;-87
2023/08/30 11:02:34;;;;;;;2.80;2.60;;;;;;;18.56;75.84;99146.81;4910525;28;20133;-86
2023/08/30 11:05:03;;;;;;;2.97;2.67;;;;;;;18.54;75.39;99149.69;4913187;28;20065;-87
2023/08/30 11:07:29;;;;;;;4.85;2.45;;;;;;;18.54;74.55;99152.38;4909717;28;20043;-85
2023/08/30 11:09:57;;;;;;;3.10;2.72;;;;;;;18.55;74.16;99147.84;4938216;28;20051;-84
2023/08/30 11:12:29;;;;;;;3.35;2.47;;;;;;;18.55;73.94;99137.09;4917599;28;20114;-88
2023/08/30 11:14:56;;;;;;;2.65;2.45;;;;;;;18.51;73.18;99133.97;4929615;28;20453;-87
2023/08/30 11:17:23;;;;;;;3.40;2.92;;;;;;;18.49;72.43;99129.84;4940537;28;20249;-87
2023/08/30 11:19:51;;;;;;;3.40;2.78;;;;;;;18.50;72.57;99134.19;4927039;28;20648;-86
2023/08/30 11:22:18;;;;;;;2.90;2.60;;;;;;;18.50;72.72;99135.03;4912360;28;20056;-85
2023/08/30 11:24:47;;;;;;;2.80;2.60;;;;;;;18.51;73.26;99131.28;4947717;28;20051;-85
2023/08/30 11:27:17;;;;;;;4.82;2.70;;;;;;;18.51;73.46;99125.91;4940495;28;20138;-85
2023/08/30 11:29:44;;;;;;;3.10;2.85;;;;;;;18.53;73.28;99129.22;4917735;28;20053;-84
2023/08/30 11:32:11;;;;;;;5.20;3.05;;;;;;;18.56;73.15;99122.63;4896134;28;20045;-85
2023/08/30 11:34:38;;;;;;;3.72;2.70;;;;;;;18.57;73.28;99121.56;4942516;28;20047;-84
2023/08/30 11:37:05;;;;;;;4.05;2.78;;;;;;;18.57;72.91;99118.88;4896976;28;20044;-84
2023/08/30 11:39:32;;;;;;;2.60;2.40;;;;;;;18.56;72.28;99114.56;4938738;28;20047;-83